Bergen, North Dakota
Current Conditions -  °F | °C
As of 10:54 PM on Sunday 19 Oct 2014 (Local Time) from KMOT Reporting Station
Clear Clear  
Wind Chill: 41°   Ceiling: Unl
Heat Index: 47°   Visibility: 10mi
Dew Point: 36°   Wind: 13mph
Humidity: 66%   Direction: 230°SW
Pressure: 29.98"   Gusts: NA
Location:  47.9335°N, 100.777°W
Report Text: KMOT 200354Z AUTO 23011KT 10SM CLR 08/02 A2998 RMK AO2 SLP158 T00830022
Loading
Personal Weather Stations






























Interactive Weather Map
Tropical Storm Tracking
New forecast layout! Learn more

10-Day Weather Forecast

Advertisements
Track Severe Weather on mobile